createdAt,value
2019-04-06T00:02:48.661Z,7.83
2019-04-06T00:05:53.839Z,7.84
2019-04-06T00:08:59.108Z,7.78
2019-04-06T00:12:04.409Z,7.79
2019-04-06T00:15:11.338Z,7.83
2019-04-06T00:18:16.647Z,7.83
2019-04-06T00:21:21.739Z,7.85
2019-04-06T00:24:29.378Z,7.85
2019-04-06T00:27:34.594Z,7.87
2019-04-06T00:30:54.325Z,7.81
2019-04-06T00:33:59.511Z,7.76
2019-04-06T00:37:04.764Z,7.77
2019-04-06T00:40:10.392Z,7.72
2019-04-06T00:43:15.553Z,7.64
2019-04-06T00:46:20.800Z,7.51
2019-04-06T00:49:25.984Z,7.29
2019-04-06T00:52:31.194Z,7.17
2019-04-06T00:55:36.519Z,6.98
2019-04-06T00:58:41.755Z,6.86
2019-04-06T01:01:47.086Z,6.80
2019-04-06T01:04:52.419Z,6.81
2019-04-06T01:07:57.697Z,6.63
2019-04-06T01:11:02.988Z,6.74
2019-04-06T01:14:08.388Z,6.79
2019-04-06T01:17:13.528Z,6.70
2019-04-06T01:20:18.811Z,6.58
2019-04-06T01:23:24.014Z,6.53
2019-04-06T01:26:29.394Z,6.54
2019-04-06T01:29:34.580Z,6.57
2019-04-06T01:32:39.759Z,6.64
2019-04-06T01:35:44.972Z,6.71
2019-04-06T01:38:50.318Z,6.81
2019-04-06T01:41:55.594Z,6.89
2019-04-06T01:45:00.798Z,6.94
2019-04-06T01:48:06.704Z,6.97
2019-04-06T01:51:11.847Z,6.94
2019-04-06T01:54:17.214Z,7.03
2019-04-06T01:57:22.599Z,7.04
2019-04-06T02:00:27.780Z,7.52
2019-04-06T02:03:33.267Z,7.39
2019-04-06T02:06:38.583Z,7.34
2019-04-06T02:09:43.908Z,7.26
2019-04-06T02:12:49.041Z,7.19
2019-04-06T02:15:54.449Z,7.20
2019-04-06T02:18:59.669Z,7.25
2019-04-06T02:22:05.305Z,7.16
2019-04-06T02:25:10.594Z,7.17
2019-04-06T02:28:15.843Z,7.09
2019-04-06T02:31:32.919Z,7.09
2019-04-06T02:34:55.674Z,7.10
2019-04-06T02:38:22.677Z,7.06
2019-04-06T02:41:46.869Z,7.06
2019-04-06T02:44:51.929Z,6.93
2019-04-06T02:47:57.224Z,6.90
2019-04-06T02:51:02.461Z,6.71
2019-04-06T02:54:07.659Z,6.67
2019-04-06T02:57:12.921Z,6.60
2019-04-06T03:00:18.761Z,6.27
2019-04-06T03:03:24.549Z,6.11
2019-04-06T03:06:29.783Z,5.85
2019-04-06T03:09:34.872Z,5.75
2019-04-06T03:12:40.455Z,5.53
2019-04-06T03:15:45.801Z,5.49
2019-04-06T03:18:50.981Z,5.41
2019-04-06T03:21:56.157Z,5.19
2019-04-06T03:25:01.533Z,5.00
2019-04-06T03:28:06.713Z,5.05
2019-04-06T03:31:12.043Z,5.04
2019-04-06T03:34:20.996Z,4.99
2019-04-06T03:37:24.605Z,4.93
2019-04-06T03:40:29.681Z,5.04
2019-04-06T03:43:34.879Z,5.11
2019-04-06T03:46:40.259Z,5.25
2019-04-06T03:49:45.571Z,5.41
2019-04-06T03:52:50.758Z,5.55
2019-04-06T03:55:55.895Z,5.70
2019-04-06T03:59:01.570Z,5.84
2019-04-06T04:02:06.767Z,5.93
2019-04-06T04:05:11.982Z,5.99
2019-04-06T04:08:17.163Z,6.09
2019-04-06T04:11:22.365Z,6.15
2019-04-06T04:14:27.875Z,6.12
2019-04-06T04:17:33.194Z,6.20
2019-04-06T04:20:38.454Z,6.28
2019-04-06T04:23:43.952Z,6.20
2019-04-06T04:26:49.119Z,6.19
2019-04-06T04:29:54.579Z,6.25
2019-04-06T04:32:59.884Z,6.32
2019-04-06T04:36:05.018Z,6.28
2019-04-06T04:39:10.174Z,6.26
2019-04-06T04:42:15.367Z,6.47
2019-04-06T04:45:20.608Z,6.36
2019-04-06T04:48:25.751Z,6.27
2019-04-06T04:51:31.011Z,6.32
2019-04-06T04:54:36.182Z,6.45
2019-04-06T04:57:43.732Z,6.39
2019-04-06T05:00:48.818Z,6.41
2019-04-06T05:03:53.986Z,6.45
2019-04-06T05:06:59.181Z,6.48
2019-04-06T05:10:04.592Z,6.57
2019-04-06T05:13:09.968Z,6.54
2019-04-06T05:16:15.142Z,6.55
2019-04-06T05:19:20.429Z,6.61
2019-04-06T05:22:25.882Z,6.65
2019-04-06T05:25:32.070Z,6.65
2019-04-06T05:28:37.272Z,6.73
2019-04-06T05:31:42.571Z,6.76
2019-04-06T05:34:47.761Z,6.85
2019-04-06T05:37:52.978Z,7.22
2019-04-06T05:40:58.192Z,7.11
2019-04-06T05:44:04.562Z,7.11
2019-04-06T05:47:09.807Z,7.09
2019-04-06T05:50:15.120Z,7.11
2019-04-06T05:53:20.479Z,7.28
2019-04-06T05:56:25.815Z,7.26
2019-04-06T05:59:30.999Z,7.34
2019-04-06T06:02:40.322Z,7.34
2019-04-06T06:05:43.201Z,7.37
2019-04-06T06:08:48.732Z,7.60
2019-04-06T06:11:55.593Z,7.73
2019-04-06T06:15:00.868Z,7.76
2019-04-06T06:18:06.194Z,8.01
2019-04-06T06:21:11.436Z,8.18
2019-04-06T06:24:16.669Z,8.33
2019-04-06T06:27:23.045Z,8.17
2019-04-06T06:30:28.754Z,7.97
2019-04-06T06:33:35.002Z,8.18
2019-04-06T06:36:40.200Z,8.36
2019-04-06T06:39:45.479Z,8.46
2019-04-06T06:42:50.863Z,8.42
2019-04-06T06:45:57.157Z,8.49
2019-04-06T06:49:02.611Z,8.55
2019-04-06T06:52:07.909Z,8.54
2019-04-06T06:55:14.147Z,8.61
2019-04-06T06:58:25.047Z,8.53
2019-04-06T07:01:26.332Z,8.85
2019-04-06T07:04:31.801Z,9.14
2019-04-06T07:07:36.969Z,9.80
2019-04-06T07:10:42.188Z,9.97
2019-04-06T07:13:47.701Z,9.93
2019-04-06T07:16:53.078Z,10.23
2019-04-06T07:19:58.253Z,10.10
2019-04-06T07:23:03.363Z,10.40
2019-04-06T07:26:08.727Z,10.46
2019-04-06T07:29:13.878Z,10.27
2019-04-06T07:32:20.115Z,10.32
2019-04-06T07:35:25.284Z,10.76
2019-04-06T07:38:30.818Z,10.81
2019-04-06T07:41:36.320Z,10.74
2019-04-06T07:44:41.524Z,10.56
2019-04-06T07:47:47.015Z,10.86
2019-04-06T07:50:52.131Z,10.87
2019-04-06T07:53:57.405Z,11.15
2019-04-06T07:57:02.874Z,11.91
2019-04-06T08:00:08.326Z,11.98
2019-04-06T08:03:13.760Z,12.08
2019-04-06T08:06:18.914Z,12.37
2019-04-06T08:09:26.859Z,12.30
2019-04-06T08:12:31.844Z,12.37
2019-04-06T08:15:36.986Z,11.73
2019-04-06T08:18:42.133Z,11.58
2019-04-06T08:21:47.357Z,11.81
2019-04-06T08:24:52.569Z,11.75
2019-04-06T08:27:57.829Z,12.11
2019-04-06T08:31:03.191Z,12.70
2019-04-06T08:34:09.492Z,12.57
2019-04-06T08:37:16.277Z,12.67
2019-04-06T08:40:21.579Z,12.87
2019-04-06T08:43:26.957Z,12.60
2019-04-06T08:46:32.144Z,12.80
2019-04-06T08:49:37.312Z,12.66
2019-04-06T08:52:42.498Z,13.62
2019-04-06T08:55:51.128Z,13.35
2019-04-06T08:58:56.263Z,13.65
2019-04-06T09:02:01.480Z,13.62
2019-04-06T09:05:06.901Z,13.82
2019-04-06T09:08:13.302Z,14.40
2019-04-06T09:11:18.507Z,14.66
2019-04-06T09:14:24.055Z,14.47
2019-04-06T09:17:29.467Z,15.09
2019-04-06T09:20:34.849Z,14.89
2019-04-06T09:23:40.372Z,14.54
2019-04-06T09:26:48.010Z,14.26
2019-04-06T09:29:53.072Z,14.23
2019-04-06T09:32:58.364Z,14.83
2019-04-06T09:36:03.648Z,14.77
2019-04-06T09:39:08.897Z,13.99
2019-04-06T09:42:14.088Z,15.04
2019-04-06T09:45:31.757Z,15.21
2019-04-06T09:48:47.645Z,14.97
2019-04-06T09:52:11.221Z,14.57
2019-04-06T09:55:44.377Z,15.05
2019-04-06T09:59:17.797Z,14.49
2019-04-06T10:02:57.671Z,14.10
2019-04-06T10:06:21.119Z,14.05
2019-04-06T10:09:48.318Z,13.95
2019-04-06T10:13:18.847Z,13.80
2019-04-06T10:16:43.736Z,14.28
2019-04-06T10:20:17.154Z,14.55
2019-04-06T10:23:39.985Z,14.94
2019-04-06T10:27:14.041Z,15.67
2019-04-06T10:30:37.048Z,16.03
2019-04-06T10:33:52.356Z,16.30
2019-04-06T10:37:19.660Z,16.28
2019-04-06T10:40:46.791Z,16.00
2019-04-06T10:44:01.972Z,15.55
2019-04-06T10:47:29.375Z,15.62
2019-04-06T10:50:52.846Z,15.14
2019-04-06T10:54:25.814Z,15.83
2019-04-06T10:57:46.987Z,16.16
2019-04-06T11:01:24.121Z,16.77
2019-04-06T11:04:34.006Z,17.03
2019-04-06T11:08:01.183Z,17.61
2019-04-06T11:11:20.656Z,17.52
2019-04-06T11:14:57.304Z,17.11
2019-04-06T11:40:19.273Z,16.93
2019-04-06T11:43:30.390Z,17.08
2019-04-06T11:46:53.209Z,16.76
2019-04-06T11:50:20.396Z,16.89
2019-04-06T11:53:31.530Z,17.03
2019-04-06T11:56:59.072Z,17.03
2019-04-06T12:00:26.580Z,17.42
2019-04-06T12:03:51.210Z,16.96
2019-04-06T12:07:24.679Z,17.83
2019-04-06T12:10:37.656Z,18.09
2019-04-06T12:13:51.131Z,18.01
2019-04-06T12:17:24.250Z,17.97
2019-04-06T12:21:04.226Z,17.56
2019-04-06T12:24:22.112Z,17.64
2019-04-06T12:27:44.906Z,17.80
2019-04-06T12:34:51.993Z,17.47
2019-04-06T12:38:25.546Z,17.28
2019-04-06T12:42:08.340Z,17.05
2019-04-06T12:45:28.360Z,17.31
2019-04-06T12:48:52.302Z,17.26
2019-04-06T12:52:30.436Z,17.41
2019-04-06T12:56:03.648Z,17.73
2019-04-06T12:59:27.905Z,18.14
2019-04-06T13:02:56.632Z,18.26
2019-04-06T13:06:13.607Z,18.81
2019-04-06T13:09:50.228Z,19.34
2019-04-06T13:13:03.656Z,19.29
2019-04-06T13:16:18.015Z,18.42
2019-04-06T13:19:45.248Z,18.63
2019-04-06T13:23:15.047Z,19.00
2019-04-06T13:26:32.208Z,19.52
2019-04-06T13:29:44.752Z,19.29
2019-04-06T13:33:08.552Z,19.02
2019-04-06T13:36:31.240Z,18.97
2019-04-06T13:39:58.192Z,18.91
2019-04-06T13:43:25.471Z,19.04
2019-04-06T13:46:40.997Z,18.95
2019-04-06T13:50:05.405Z,18.98
2019-04-06T13:53:32.596Z,18.76
2019-04-06T13:56:59.540Z,18.93
2019-04-06T14:00:24.907Z,19.03
2019-04-06T14:03:41.270Z,19.16
2019-04-06T14:07:23.960Z,18.98
2019-04-06T14:11:00.828Z,19.06
2019-04-06T14:14:25.297Z,18.82
2019-04-06T14:17:48.323Z,19.22
2019-04-06T14:21:18.759Z,19.25
2019-04-06T14:24:37.619Z,19.01
2019-04-06T14:27:58.885Z,19.04
2019-04-06T14:31:28.204Z,18.97
2019-04-06T14:34:59.354Z,18.96
2019-04-06T14:38:29.851Z,18.92
2019-04-06T14:42:02.224Z,18.84
2019-04-06T14:45:19.203Z,18.70
2019-04-06T14:48:43.281Z,18.85
2019-04-06T14:52:06.134Z,19.13
2019-04-06T14:55:29.024Z,19.00
2019-04-06T14:58:44.896Z,18.99
2019-04-06T15:02:06.679Z,18.89
2019-04-06T15:05:36.743Z,19.08
2019-04-06T15:08:58.022Z,19.16
2019-04-06T15:12:23.059Z,19.64
2019-04-06T15:16:01.823Z,20.24
2019-04-06T15:19:22.978Z,20.65
2019-04-06T15:22:43.654Z,20.35
2019-04-06T15:26:06.611Z,20.26
2019-04-06T15:29:25.724Z,20.38
2019-04-06T15:32:52.518Z,20.45
2019-04-06T15:36:07.020Z,20.09
2019-04-06T15:39:37.597Z,20.29
2019-04-06T15:43:00.630Z,20.04
2019-04-06T15:46:30.074Z,20.17
2019-04-06T15:49:52.159Z,20.21
2019-04-06T15:53:13.652Z,19.70
2019-04-06T15:56:33.669Z,19.51
2019-04-06T16:00:06.709Z,19.73
2019-04-06T16:03:22.597Z,19.84
2019-04-06T16:06:35.213Z,19.67
2019-04-06T16:09:52.516Z,19.52
2019-04-06T16:13:16.603Z,19.50
2019-04-06T16:16:44.111Z,19.34
2019-04-06T16:20:08.370Z,19.39
2019-04-06T16:23:20.962Z,19.38
2019-04-06T16:26:45.254Z,19.57
2019-04-06T16:30:16.546Z,19.14
2019-04-06T16:33:29.806Z,19.31
2019-04-06T16:36:57.177Z,18.94
2019-04-06T16:40:27.247Z,18.72
2019-04-06T16:43:52.567Z,18.67
2019-04-06T16:47:09.355Z,18.42
2019-04-06T16:50:24.510Z,18.61
2019-04-06T16:53:38.975Z,18.59
2019-04-06T16:56:52.164Z,18.46
2019-04-06T17:00:19.853Z,18.46
2019-04-06T17:03:42.036Z,18.36
2019-04-06T17:06:57.905Z,18.18
2019-04-06T17:10:13.990Z,18.26
2019-04-06T17:13:30.791Z,18.01
2019-04-06T17:16:54.992Z,17.96
2019-04-06T17:20:23.925Z,17.82
2019-04-06T17:23:36.928Z,17.89
2019-04-06T17:26:54.934Z,17.86
2019-04-06T17:30:08.893Z,17.68
2019-04-06T17:33:27.619Z,17.44
2019-04-06T17:36:57.733Z,17.16
2019-04-06T17:40:20.792Z,16.77
2019-04-06T17:43:41.816Z,16.51
2019-04-06T17:47:00.820Z,16.27
2019-04-06T17:50:35.793Z,16.06
2019-04-06T17:53:58.736Z,15.64
2019-04-06T17:57:39.142Z,15.47
2019-04-06T18:00:53.648Z,15.20
2019-04-06T18:04:16.651Z,14.97
2019-04-06T18:07:45.008Z,14.59
2019-04-06T18:11:12.614Z,14.23
2019-04-06T18:14:18.929Z,14.04
2019-04-06T18:17:24.403Z,13.66
2019-04-06T18:20:29.997Z,13.46
2019-04-06T18:23:35.598Z,13.19
2019-04-06T18:26:40.798Z,13.01
2019-04-06T18:29:46.521Z,12.95
2019-04-06T18:33:02.231Z,12.80
2019-04-06T18:36:05.453Z,12.62
2019-04-06T18:39:11.585Z,12.65
2019-04-06T18:42:16.781Z,12.54
2019-04-06T18:45:21.988Z,12.38
2019-04-06T18:48:27.442Z,12.22
2019-04-06T18:51:32.789Z,12.18
2019-04-06T18:54:38.051Z,12.28
2019-04-06T18:57:43.536Z,12.28
2019-04-06T19:00:48.728Z,12.24
2019-04-06T19:03:53.968Z,12.19
2019-04-06T19:06:59.164Z,12.02
2019-04-06T19:10:04.677Z,11.91
2019-04-06T19:13:10.004Z,11.93
2019-04-06T19:16:17.086Z,11.64
2019-04-06T19:19:23.308Z,11.59
2019-04-06T19:22:28.547Z,11.34
2019-04-06T19:25:33.900Z,11.30
2019-04-06T19:28:39.105Z,11.25
2019-04-06T19:31:44.377Z,11.10
2019-04-06T19:34:50.706Z,10.90
2019-04-06T19:37:56.772Z,10.78
2019-04-06T19:41:02.146Z,10.69
2019-04-06T19:44:08.023Z,10.64
2019-04-06T19:47:13.377Z,10.68
2019-04-06T19:50:19.065Z,10.58
2019-04-06T19:53:24.500Z,10.47
2019-04-06T19:56:30.011Z,10.40
2019-04-06T19:59:37.244Z,10.61
2019-04-06T20:02:42.628Z,10.42
2019-04-06T20:05:47.857Z,10.32
2019-04-06T20:08:52.946Z,10.17
2019-04-06T20:12:07.032Z,9.98
2019-04-06T20:15:07.493Z,9.98
2019-04-06T20:18:13.786Z,9.92
2019-04-06T20:21:19.090Z,9.75
2019-04-06T20:24:24.345Z,9.65
2019-04-06T20:27:29.620Z,9.55
2019-04-06T20:30:34.884Z,9.43
2019-04-06T20:33:48.401Z,9.41
2019-04-06T20:36:47.189Z,9.39
2019-04-06T20:39:52.546Z,9.25
2019-04-06T20:42:59.065Z,9.19
2019-04-06T20:46:04.386Z,9.30
2019-04-06T20:49:09.616Z,9.23
2019-04-06T20:52:16.130Z,9.12
2019-04-06T20:55:21.177Z,9.20
2019-04-06T20:58:26.885Z,9.14
2019-04-06T21:01:33.481Z,9.06
2019-04-06T21:04:38.775Z,8.95
2019-04-06T21:07:43.955Z,8.91
2019-04-06T21:10:49.123Z,8.86
2019-04-06T21:13:54.370Z,8.84
2019-04-06T21:17:00.152Z,8.83
2019-04-06T21:20:08.127Z,8.69
2019-04-06T21:23:13.855Z,8.70
2019-04-06T21:26:19.079Z,8.58
2019-04-06T21:29:24.497Z,8.48
2019-04-06T21:32:30.418Z,8.46
2019-04-06T21:35:36.230Z,8.39
2019-04-06T21:38:42.885Z,8.43
2019-04-06T21:41:48.666Z,8.31
2019-04-06T21:44:53.804Z,8.18
2019-04-06T21:47:59.442Z,8.04
2019-04-06T21:51:05.412Z,8.00
2019-04-06T21:54:10.882Z,7.91
2019-04-06T21:57:16.027Z,7.80
2019-04-06T22:00:45.066Z,7.73
2019-04-06T22:03:50.698Z,7.75
2019-04-06T22:06:55.813Z,7.68
2019-04-06T22:10:02.659Z,7.75
2019-04-06T22:13:09.408Z,7.66
2019-04-06T22:16:14.732Z,7.55
2019-04-06T22:19:21.408Z,7.41
2019-04-06T22:22:27.819Z,7.44
2019-04-06T22:25:33.445Z,7.43
2019-04-06T22:28:38.718Z,7.49
2019-04-06T22:31:43.881Z,7.48
2019-04-06T22:34:49.100Z,7.36
2019-04-06T22:37:55.459Z,7.26
2019-04-06T22:41:01.294Z,7.18
2019-04-06T22:44:07.313Z,7.05
2019-04-06T22:47:12.926Z,7.11
2019-04-06T22:50:18.820Z,7.13
2019-04-06T22:53:23.962Z,7.07
2019-04-06T22:56:29.409Z,6.98
2019-04-06T22:59:35.911Z,7.00
2019-04-06T23:02:50.893Z,6.91
2019-04-06T23:05:59.604Z,7.03
2019-04-06T23:09:07.076Z,6.93
2019-04-06T23:12:12.249Z,6.87
2019-04-06T23:15:17.518Z,6.74
2019-04-06T23:18:23.081Z,6.83
2019-04-06T23:21:28.383Z,6.81
2019-04-06T23:24:33.545Z,6.77
2019-04-06T23:27:38.767Z,6.66
2019-04-06T23:30:44.139Z,6.58
2019-04-06T23:33:49.348Z,6.52
2019-04-06T23:36:54.517Z,6.39
2019-04-06T23:39:59.827Z,6.31
2019-04-06T23:43:04.960Z,6.36
2019-04-06T23:46:10.110Z,6.42
2019-04-06T23:49:15.283Z,6.41
2019-04-06T23:52:20.409Z,6.32
2019-04-06T23:55:26.124Z,6.40
2019-04-06T23:58:31.457Z,6.32
